Coral Electra — PCAG — position and weather

sailwx.info

Track history (hours):
 
Tides and Currents Weather Stations Pressure Air Temp Water Temp Dewpoint Dewpoint Depression Visibility Wind Speed Wind Dir Waves Ship Positions

Coral Electra

Last reported at 2014-Nov-27 19:05 UTC. Time now 2014-Nov-27 20:50 UTC.
Position N 53°34' E 006°45'.

Length 14 m; draft 2 m.

Type: Port tender. MMSI: 244690019.

Date/timePositionNaut miles runAvg speedWind from/ knotsBaromVisibWave heightAir tempDewpointWater temp
2014-Nov-27 19:05N 53°34' E 006°45'2 1.1
2014-Nov-27 17:23N 53°32' E 006°44'6 7.3
2014-Nov-27 16:32N 53°27' E 006°50'0 0.0
2014-Nov-27 15:32N 53°27' E 006°50'6 5.7
2014-Nov-27 14:32N 53°30' E 006°42'2 0.4
2014-Nov-27 10:06N 53°32' E 006°41'713.2
2014-Nov-27 09:33N 53°27' E 006°49'0 0.1
2014-Nov-27 08:30N 53°27' E 006°50'7 2.5
2014-Nov-27 05:32N 53°33' E 006°43'7 7.1
2014-Nov-27 04:33N 53°27' E 006°50'7 4.9
2014-Nov-27 03:09N 53°34' E 006°45'2 0.2
2014-Nov-26 17:30N 53°33' E 006°43'7 7.4
2014-Nov-26 16:32N 53°27' E 006°50'0 0.0
2014-Nov-26 15:32N 53°27' E 006°50'8 6.1
2014-Nov-26 14:16N 53°32' E 006°40'810.5
2014-Nov-26 13:33N 53°27' E 006°49'4 1.2
2014-Nov-26 10:32N 53°29' E 006°45'1 0.4
2014-Nov-26 08:20N 53°29' E 006°44'4 5.0
2014-Nov-26 07:33N 53°28' E 006°50'3 1.3
2014-Nov-26 05:33N 53°31' E 006°47'4 4.0
2014-Nov-26 04:32N 53°27' E 006°50'0 0.0
2014-Nov-26 03:32N 53°27' E 006°50'0 0.0
2014-Nov-26 02:32N 53°27' E 006°50'0 0.0
2014-Nov-26 01:32N 53°27' E 006°50'0 0.0
2014-Nov-26 00:26N 53°27' E 006°50'0 0.0
2014-Nov-25 23:32N 53°27' E 006°50'0 0.0
2014-Nov-25 22:29N 53°27' E 006°50'0 0.0
2014-Nov-25 21:29N 53°27' E 006°50'0 0.0
2014-Nov-25 20:32N 53°27' E 006°50'0 0.0
2014-Nov-25 19:32N 53°27' E 006°50'0 0.2
2014-Nov-25 18:33N 53°27' E 006°49'8 8.2
2014-Nov-25 17:33N 53°33' E 006°41'8 8.3
2014-Nov-25 16:33N 53°27' E 006°50'1312.6
2014-Nov-25 15:33N 53°20' E 007°07'1717.3
2014-Nov-25 14:33N 53°31' E 006°46'5 5.3
2014-Nov-25 13:33N 53°27' E 006°50'4 1.4
2014-Nov-25 10:33N 53°29' E 006°44'4 3.8
2014-Nov-25 09:31N 53°27' E 006°49'0 0.3
2014-Nov-25 08:33N 53°27' E 006°50'0 0.1
2014-Nov-25 07:33N 53°27' E 006°50'2 2.3
2014-Nov-25 06:33N 53°29' E 006°47'0 0.4
2014-Nov-25 05:33N 53°29' E 006°47'3 2.5
2014-Nov-25 04:32N 53°27' E 006°50'0 0.0
2014-Nov-25 03:32N 53°27' E 006°50'0 0.0
2014-Nov-25 02:29N 53°27' E 006°50'0 0.0
2014-Nov-25 01:29N 53°27' E 006°50'0 0.0
2014-Nov-25 00:26N 53°27' E 006°50'0 0.0
2014-Nov-24 23:32N 53°27' E 006°50'0 0.0
2014-Nov-24 22:32N 53°27' E 006°50'0 0.0
2014-Nov-24 21:29N 53°27' E 006°50'0 0.0
2014-Nov-24 20:32N 53°27' E 006°50'0 0.0
2014-Nov-24 19:32N 53°27' E 006°50'0 0.0
2014-Nov-24 18:32N 53°27' E 006°50'0 0.0
2014-Nov-24 17:32N 53°27' E 006°50'0 0.0
2014-Nov-24 16:32N 53°27' E 006°50'0 0.0
2014-Nov-24 15:32N 53°27' E 006°50'0 0.0
2014-Nov-24 14:32N 53°27' E 006°50'0 0.0
2014-Nov-24 13:32N 53°27' E 006°50'0 0.0
2014-Nov-24 12:32N 53°27' E 006°50'0 0.0
2014-Nov-24 11:32N 53°27' E 006°50'0 0.0
2014-Nov-24 10:26N 53°27' E 006°50'0 0.0
2014-Nov-24 09:32N 53°27' E 006°50'0 0.0
2014-Nov-24 08:30N 53°27' E 006°50'1 0.9
2014-Nov-24 07:33N 53°27' E 006°50'1 1.1
2014-Nov-24 06:33N 53°28' E 006°49'1 1.5
2014-Nov-24 05:33N 53°27' E 006°50'0 0.0
2014-Nov-24 04:30N 53°27' E 006°50'0 0.0
2014-Nov-24 03:33N 53°27' E 006°50'0 0.0
2014-Nov-24 02:33N 53°27' E 006°50'0 0.0
2014-Nov-24 01:33N 53°27' E 006°50'0 0.0
2014-Nov-24 00:33N 53°27' E 006°50'0 0.0
2014-Nov-23 23:33N 53°27' E 006°50'0 0.0
2014-Nov-23 22:33N 53°27' E 006°50'0 0.0
2014-Nov-23 21:33N 53°27' E 006°50'0 0.0
2014-Nov-23 20:30N 53°27' E 006°50'0 0.0
2014-Nov-23 19:33N 53°27' E 006°50'0 0.2
2014-Nov-23 18:33N 53°27' E 006°49'7 4.5
2014-Nov-23 17:05N 53°31' E 006°41'712.8
2014-Nov-23 16:33N 53°27' E 006°50'8 2.5
2014-Nov-23 13:13N 53°33' E 006°40'812.3
2014-Nov-23 12:33N 53°27' E 006°49'0 0.0
2014-Nov-23 11:33N 53°27' E 006°49'0 0.0
2014-Nov-23 10:33N 53°27' E 006°49'0 0.0
2014-Nov-23 09:33N 53°27' E 006°49'7 3.3
2014-Nov-23 07:24N 53°33' E 006°43'7 8.0
2014-Nov-23 06:31N 53°27' E 006°49'0 0.3
2014-Nov-23 05:33N 53°27' E 006°50'0 0.0
2014-Nov-23 04:30N 53°27' E 006°50'0 0.0
2014-Nov-23 03:33N 53°27' E 006°50'0 0.0
2014-Nov-23 02:33N 53°27' E 006°50'0 0.0
2014-Nov-23 01:30N 53°27' E 006°50'0 0.0
2014-Nov-23 00:33N 53°27' E 006°50'0 0.0
2014-Nov-22 23:33N 53°27' E 006°50'0 0.0
2014-Nov-22 22:33N 53°27' E 006°50'0 0.0
2014-Nov-22 21:33N 53°27' E 006°50'0 0.0
2014-Nov-22 20:33N 53°27' E 006°50'6 5.6
2014-Nov-22 19:33N 53°31' E 006°45'1 0.7
2014-Nov-22 18:15N 53°32' E 006°44'6 8.2
2014-Nov-22 17:28N 53°27' E 006°50'0 0.0
2014-Nov-22 16:31N 53°27' E 006°50'5 5.3
2014-Nov-22 15:31N 53°30' E 006°43'5 5.5
2014-Nov-22 14:33N 53°27' E 006°50'0 0.0
2014-Nov-22 13:33N 53°27' E 006°50'0 0.0
2014-Nov-22 12:30N 53°27' E 006°50'0 0.0
2014-Nov-22 11:30N 53°27' E 006°50'0 0.1
2014-Nov-22 08:33N 53°27' E 006°49'0 0.3
2014-Nov-22 07:32N 53°27' E 006°50'7 5.1
2014-Nov-22 06:07N 53°32' E 006°41'712.4
2014-Nov-22 05:33N 53°27' E 006°49'0 0.3
2014-Nov-22 04:33N 53°27' E 006°50'0 0.0
2014-Nov-22 03:33N 53°27' E 006°50'0 0.0
2014-Nov-22 02:33N 53°27' E 006°50'0 0.0
2014-Nov-22 01:33N 53°27' E 006°50'0 0.0
2014-Nov-22 00:33N 53°27' E 006°50'0 0.0
2014-Nov-21 23:30N 53°27' E 006°50'0 0.0
2014-Nov-21 22:33N 53°27' E 006°50'0 0.0
2014-Nov-21 21:33N 53°27' E 006°50'0 0.0
2014-Nov-21 20:33N 53°27' E 006°50'0 0.0
2014-Nov-21 19:33N 53°27' E 006°50'0 0.0
2014-Nov-21 18:33N 53°27' E 006°50'0 0.0
2014-Nov-21 17:33N 53°27' E 006°50'1 0.6
2014-Nov-21 16:33N 53°27' E 006°50'1 0.5
2014-Nov-21 15:33N 53°27' E 006°50'0 0.1
2014-Nov-21 14:32N 53°27' E 006°50'0 0.0
2014-Nov-21 13:32N 53°27' E 006°50'0 0.0
2014-Nov-21 12:32N 53°27' E 006°50'0 0.2
2014-Nov-21 11:33N 53°27' E 006°50'7 3.6
2014-Nov-21 09:33N 53°32' E 006°41'7 7.2
2014-Nov-21 08:33N 53°27' E 006°50'0 0.0
2014-Nov-21 07:33N 53°27' E 006°50'3 2.7
2014-Nov-21 06:32N 53°29' E 006°46'2 2.4
2014-Nov-21 05:31N 53°27' E 006°49'0 0.3
2014-Nov-21 04:31N 53°27' E 006°50'0 0.0
2014-Nov-21 03:31N 53°27' E 006°50'0 0.0
2014-Nov-21 02:31N 53°27' E 006°50'0 0.0
2014-Nov-21 01:31N 53°27' E 006°50'0 0.0
2014-Nov-21 00:31N 53°27' E 006°50'0 0.0
2014-Nov-20 23:31N 53°27' E 006°50'0 0.0
2014-Nov-20 22:31N 53°27' E 006°50'0 0.0
2014-Nov-20 21:31N 53°27' E 006°50'0 0.0
2014-Nov-20 20:31N 53°27' E 006°50'0 0.0
2014-Nov-20 19:28N 53°27' E 006°50'0 0.0
2014-Nov-20 18:31N 53°27' E 006°50'0 0.0
2014-Nov-20 17:31N 53°27' E 006°50'1 0.9
2014-Nov-20 16:33N 53°27' E 006°50'1 0.8
2014-Nov-20 15:28N 53°27' E 006°50'0 0.0
2014-Nov-20 14:31N 53°27' E 006°50'0 0.0
2014-Nov-20 13:31N 53°27' E 006°50'7 6.0
2014-Nov-20 12:26N 53°31' E 006°41'7 7.3
2014-Nov-20 11:32N 53°27' E 006°50'0 0.0
2014-Nov-20 10:32N 53°27' E 006°50'7 4.8
2014-Nov-20 09:10N 53°31' E 006°41'710.6
2014-Nov-20 08:33N 53°27' E 006°50'0 0.0
2014-Nov-20 07:33N 53°27' E 006°50'4 3.6
2014-Nov-20 06:32N 53°29' E 006°45'3 3.4
2014-Nov-20 05:32N 53°27' E 006°49'0 0.3
2014-Nov-20 04:30N 53°27' E 006°50'0 0.0
2014-Nov-20 03:33N 53°27' E 006°50'0 0.0
2014-Nov-20 02:33N 53°27' E 006°50'0 0.0
2014-Nov-20 01:33N 53°27' E 006°50'0 0.0
2014-Nov-20 00:33N 53°27' E 006°50'0 0.0
2014-Nov-19 23:33N 53°27' E 006°50'0 0.0
2014-Nov-19 22:27N 53°27' E 006°50'0 0.0
2014-Nov-19 21:30N 53°27' E 006°50'0 0.0
2014-Nov-19 20:33N 53°27' E 006°50'0 0.0
2014-Nov-19 19:33N 53°27' E 006°50'0 0.0
2014-Nov-19 18:33N 53°27' E 006°50'0 0.0
2014-Nov-19 17:33N 53°27' E 006°50'0 0.0
2014-Nov-19 16:33N 53°27' E 006°50'0 0.0
2014-Nov-19 15:30N 53°27' E 006°50'0 0.0
2014-Nov-19 14:33N 53°27' E 006°50'0 0.0
2014-Nov-19 13:33N 53°27' E 006°50'0 0.0
2014-Nov-19 12:33N 53°27' E 006°50'0 0.0
2014-Nov-19 11:33N 53°27' E 006°50'0 0.0
2014-Nov-19 10:30N 53°27' E 006°50'0 0.0
2014-Nov-19 09:30N 53°27' E 006°50'0 0.0
2014-Nov-19 08:33N 53°27' E 006°50'0 0.0
2014-Nov-19 07:33N 53°27' E 006°50'0 0.0
2014-Nov-19 06:33N 53°27' E 006°50'0 0.0
2014-Nov-19 05:30N 53°27' E 006°50'0 0.0
2014-Nov-19 04:33N 53°27' E 006°50'0 0.0
2014-Nov-19 03:33N 53°27' E 006°50'0 0.0
2014-Nov-19 02:30N 53°27' E 006°50'0 0.0
2014-Nov-19 01:33N 53°27' E 006°50'0 0.0
2014-Nov-19 00:33N 53°27' E 006°50'0 0.0
2014-Nov-18 23:33N 53°27' E 006°50'0 0.0
2014-Nov-18 22:33N 53°27' E 006°50'0 0.0
2014-Nov-18 21:33N 53°27' E 006°50'0 0.0
2014-Nov-18 20:33N 53°27' E 006°50'0 0.0
2014-Nov-18 19:33N 53°27' E 006°50'0 0.0
2014-Nov-18 18:27N 53°27' E 006°50'0 0.0
2014-Nov-18 17:33N 53°27' E 006°50'0 0.0
2014-Nov-18 16:33N 53°27' E 006°50'0 0.0
2014-Nov-18 15:33N 53°27' E 006°50'0 0.0
2014-Nov-18 14:33N 53°27' E 006°50'0 0.0
2014-Nov-18 13:27N 53°27' E 006°50'0 0.0
2014-Nov-18 12:33N 53°27' E 006°50'0 0.0
2014-Nov-18 11:30N 53°27' E 006°50'1 0.6
2014-Nov-18 09:33N 53°28' E 006°50'1 1.0
2014-Nov-18 08:30N 53°27' E 006°50'0 0.0
2014-Nov-18 07:30N 53°27' E 006°50'0 0.0
2014-Nov-18 06:33N 53°27' E 006°50'0 0.0
2014-Nov-18 05:30N 53°27' E 006°50'0 0.0
2014-Nov-18 04:33N 53°27' E 006°50'0 0.0
2014-Nov-18 03:33N 53°27' E 006°50'0 0.0
2014-Nov-18 02:33N 53°27' E 006°50'0 0.0
2014-Nov-18 01:33N 53°27' E 006°50'0 0.0
2014-Nov-18 00:33N 53°27' E 006°50'0 0.0
2014-Nov-17 23:33N 53°27' E 006°50'0 0.0
2014-Nov-17 22:30N 53°27' E 006°50'0 0.0
2014-Nov-17 21:33N 53°27' E 006°50'0 0.0
2014-Nov-17 20:33N 53°27' E 006°50'0 0.0
2014-Nov-17 19:27N 53°27' E 006°50'  
Track history (hours):
 
Tides and Currents Weather Stations Pressure Air Temp Water Temp Dewpoint Dewpoint Depression Visibility Wind Speed Wind Dir Waves Ship Positions

Coral Electra

Last reported at 2014-Nov-27 19:05 UTC. Time now 2014-Nov-27 20:50 UTC.
Position N 53°34' E 006°45'.

Length 14 m; draft 2 m.

Type: Port tender. MMSI: 244690019.

Date/timePositionNaut miles runAvg speedWind from/ knotsBaromVisibWave heightAir tempDewpointWater temp
2014-Nov-27 19:05N 53°34' E 006°45'2 1.1
2014-Nov-27 17:23N 53°32' E 006°44'6 7.3
2014-Nov-27 16:32N 53°27' E 006°50'0 0.0
2014-Nov-27 15:32N 53°27' E 006°50'6 5.7
2014-Nov-27 14:32N 53°30' E 006°42'2 0.4
2014-Nov-27 10:06N 53°32' E 006°41'713.2
2014-Nov-27 09:33N 53°27' E 006°49'0 0.1
2014-Nov-27 08:30N 53°27' E 006°50'7 2.5
2014-Nov-27 05:32N 53°33' E 006°43'7 7.1
2014-Nov-27 04:33N 53°27' E 006°50'7 4.9
2014-Nov-27 03:09N 53°34' E 006°45'2 0.2
2014-Nov-26 17:30N 53°33' E 006°43'7 7.4
2014-Nov-26 16:32N 53°27' E 006°50'0 0.0
2014-Nov-26 15:32N 53°27' E 006°50'8 6.1
2014-Nov-26 14:16N 53°32' E 006°40'810.5
2014-Nov-26 13:33N 53°27' E 006°49'4 1.2
2014-Nov-26 10:32N 53°29' E 006°45'1 0.4
2014-Nov-26 08:20N 53°29' E 006°44'4 5.0
2014-Nov-26 07:33N 53°28' E 006°50'3 1.3
2014-Nov-26 05:33N 53°31' E 006°47'4 4.0
2014-Nov-26 04:32N 53°27' E 006°50'0 0.0
2014-Nov-26 03:32N 53°27' E 006°50'0 0.0
2014-Nov-26 02:32N 53°27' E 006°50'0 0.0
2014-Nov-26 01:32N 53°27' E 006°50'0 0.0
2014-Nov-26 00:26N 53°27' E 006°50'0 0.0
2014-Nov-25 23:32N 53°27' E 006°50'0 0.0
2014-Nov-25 22:29N 53°27' E 006°50'0 0.0
2014-Nov-25 21:29N 53°27' E 006°50'0 0.0
2014-Nov-25 20:32N 53°27' E 006°50'0 0.0
2014-Nov-25 19:32N 53°27' E 006°50'0 0.2
2014-Nov-25 18:33N 53°27' E 006°49'8 8.2
2014-Nov-25 17:33N 53°33' E 006°41'8 8.3
2014-Nov-25 16:33N 53°27' E 006°50'1312.6
2014-Nov-25 15:33N 53°20' E 007°07'1717.3
2014-Nov-25 14:33N 53°31' E 006°46'5 5.3
2014-Nov-25 13:33N 53°27' E 006°50'4 1.4
2014-Nov-25 10:33N 53°29' E 006°44'4 3.8
2014-Nov-25 09:31N 53°27' E 006°49'0 0.3
2014-Nov-25 08:33N 53°27' E 006°50'0 0.1
2014-Nov-25 07:33N 53°27' E 006°50'2 2.3
2014-Nov-25 06:33N 53°29' E 006°47'0 0.4
2014-Nov-25 05:33N 53°29' E 006°47'3 2.5
2014-Nov-25 04:32N 53°27' E 006°50'0 0.0
2014-Nov-25 03:32N 53°27' E 006°50'0 0.0
2014-Nov-25 02:29N 53°27' E 006°50'0 0.0
2014-Nov-25 01:29N 53°27' E 006°50'0 0.0
2014-Nov-25 00:26N 53°27' E 006°50'0 0.0
2014-Nov-24 23:32N 53°27' E 006°50'0 0.0
2014-Nov-24 22:32N 53°27' E 006°50'0 0.0
2014-Nov-24 21:29N 53°27' E 006°50'0 0.0
2014-Nov-24 20:32N 53°27' E 006°50'0 0.0
2014-Nov-24 19:32N 53°27' E 006°50'0 0.0
2014-Nov-24 18:32N 53°27' E 006°50'0 0.0
2014-Nov-24 17:32N 53°27' E 006°50'0 0.0
2014-Nov-24 16:32N 53°27' E 006°50'0 0.0
2014-Nov-24 15:32N 53°27' E 006°50'0 0.0
2014-Nov-24 14:32N 53°27' E 006°50'0 0.0
2014-Nov-24 13:32N 53°27' E 006°50'0 0.0
2014-Nov-24 12:32N 53°27' E 006°50'0 0.0
2014-Nov-24 11:32N 53°27' E 006°50'0 0.0
2014-Nov-24 10:26N 53°27' E 006°50'0 0.0
2014-Nov-24 09:32N 53°27' E 006°50'0 0.0
2014-Nov-24 08:30N 53°27' E 006°50'1 0.9
2014-Nov-24 07:33N 53°27' E 006°50'1 1.1
2014-Nov-24 06:33N 53°28' E 006°49'1 1.5
2014-Nov-24 05:33N 53°27' E 006°50'0 0.0
2014-Nov-24 04:30N 53°27' E 006°50'0 0.0
2014-Nov-24 03:33N 53°27' E 006°50'0 0.0
2014-Nov-24 02:33N 53°27' E 006°50'0 0.0
2014-Nov-24 01:33N 53°27' E 006°50'0 0.0
2014-Nov-24 00:33N 53°27' E 006°50'0 0.0
2014-Nov-23 23:33N 53°27' E 006°50'0 0.0
2014-Nov-23 22:33N 53°27' E 006°50'0 0.0
2014-Nov-23 21:33N 53°27' E 006°50'0 0.0
2014-Nov-23 20:30N 53°27' E 006°50'0 0.0
2014-Nov-23 19:33N 53°27' E 006°50'0 0.2
2014-Nov-23 18:33N 53°27' E 006°49'7 4.5
2014-Nov-23 17:05N 53°31' E 006°41'712.8
2014-Nov-23 16:33N 53°27' E 006°50'8 2.5
2014-Nov-23 13:13N 53°33' E 006°40'812.3
2014-Nov-23 12:33N 53°27' E 006°49'0 0.0
2014-Nov-23 11:33N 53°27' E 006°49'0 0.0
2014-Nov-23 10:33N 53°27' E 006°49'0 0.0
2014-Nov-23 09:33N 53°27' E 006°49'7 3.3
2014-Nov-23 07:24N 53°33' E 006°43'7 8.0
2014-Nov-23 06:31N 53°27' E 006°49'0 0.3
2014-Nov-23 05:33N 53°27' E 006°50'0 0.0
2014-Nov-23 04:30N 53°27' E 006°50'0 0.0
2014-Nov-23 03:33N 53°27' E 006°50'0 0.0
2014-Nov-23 02:33N 53°27' E 006°50'0 0.0
2014-Nov-23 01:30N 53°27' E 006°50'0 0.0
2014-Nov-23 00:33N 53°27' E 006°50'0 0.0
2014-Nov-22 23:33N 53°27' E 006°50'0 0.0
2014-Nov-22 22:33N 53°27' E 006°50'0 0.0
2014-Nov-22 21:33N 53°27' E 006°50'0 0.0
2014-Nov-22 20:33N 53°27' E 006°50'6 5.6
2014-Nov-22 19:33N 53°31' E 006°45'1 0.7
2014-Nov-22 18:15N 53°32' E 006°44'6 8.2
2014-Nov-22 17:28N 53°27' E 006°50'0 0.0
2014-Nov-22 16:31N 53°27' E 006°50'5 5.3
2014-Nov-22 15:31N 53°30' E 006°43'5 5.5
2014-Nov-22 14:33N 53°27' E 006°50'0 0.0
2014-Nov-22 13:33N 53°27' E 006°50'0 0.0
2014-Nov-22 12:30N 53°27' E 006°50'0 0.0
2014-Nov-22 11:30N 53°27' E 006°50'0 0.1
2014-Nov-22 08:33N 53°27' E 006°49'0 0.3
2014-Nov-22 07:32N 53°27' E 006°50'7 5.1
2014-Nov-22 06:07N 53°32' E 006°41'712.4
2014-Nov-22 05:33N 53°27' E 006°49'0 0.3
2014-Nov-22 04:33N 53°27' E 006°50'0 0.0
2014-Nov-22 03:33N 53°27' E 006°50'0 0.0
2014-Nov-22 02:33N 53°27' E 006°50'0 0.0
2014-Nov-22 01:33N 53°27' E 006°50'0 0.0
2014-Nov-22 00:33N 53°27' E 006°50'0 0.0
2014-Nov-21 23:30N 53°27' E 006°50'0 0.0
2014-Nov-21 22:33N 53°27' E 006°50'0 0.0
2014-Nov-21 21:33N 53°27' E 006°50'0 0.0
2014-Nov-21 20:33N 53°27' E 006°50'0 0.0
2014-Nov-21 19:33N 53°27' E 006°50'0 0.0
2014-Nov-21 18:33N 53°27' E 006°50'0 0.0
2014-Nov-21 17:33N 53°27' E 006°50'1 0.6
2014-Nov-21 16:33N 53°27' E 006°50'1 0.5
2014-Nov-21 15:33N 53°27' E 006°50'0 0.1
2014-Nov-21 14:32N 53°27' E 006°50'0 0.0
2014-Nov-21 13:32N 53°27' E 006°50'0 0.0
2014-Nov-21 12:32N 53°27' E 006°50'0 0.2
2014-Nov-21 11:33N 53°27' E 006°50'7 3.6
2014-Nov-21 09:33N 53°32' E 006°41'7 7.2
2014-Nov-21 08:33N 53°27' E 006°50'0 0.0
2014-Nov-21 07:33N 53°27' E 006°50'3 2.7
2014-Nov-21 06:32N 53°29' E 006°46'2 2.4
2014-Nov-21 05:31N 53°27' E 006°49'0 0.3
2014-Nov-21 04:31N 53°27' E 006°50'0 0.0
2014-Nov-21 03:31N 53°27' E 006°50'0 0.0
2014-Nov-21 02:31N 53°27' E 006°50'0 0.0
2014-Nov-21 01:31N 53°27' E 006°50'0 0.0
2014-Nov-21 00:31N 53°27' E 006°50'0 0.0
2014-Nov-20 23:31N 53°27' E 006°50'0 0.0
2014-Nov-20 22:31N 53°27' E 006°50'0 0.0
2014-Nov-20 21:31N 53°27' E 006°50'0 0.0
2014-Nov-20 20:31N 53°27' E 006°50'0 0.0
2014-Nov-20 19:28N 53°27' E 006°50'0 0.0
2014-Nov-20 18:31N 53°27' E 006°50'0 0.0
2014-Nov-20 17:31N 53°27' E 006°50'1 0.9
2014-Nov-20 16:33N 53°27' E 006°50'1 0.8
2014-Nov-20 15:28N 53°27' E 006°50'0 0.0
2014-Nov-20 14:31N 53°27' E 006°50'0 0.0
2014-Nov-20 13:31N 53°27' E 006°50'7 6.0
2014-Nov-20 12:26N 53°31' E 006°41'7 7.3
2014-Nov-20 11:32N 53°27' E 006°50'0 0.0
2014-Nov-20 10:32N 53°27' E 006°50'7 4.8
2014-Nov-20 09:10N 53°31' E 006°41'710.6
2014-Nov-20 08:33N 53°27' E 006°50'0 0.0
2014-Nov-20 07:33N 53°27' E 006°50'4 3.6
2014-Nov-20 06:32N 53°29' E 006°45'3 3.4
2014-Nov-20 05:32N 53°27' E 006°49'0 0.3
2014-Nov-20 04:30N 53°27' E 006°50'0 0.0
2014-Nov-20 03:33N 53°27' E 006°50'0 0.0
2014-Nov-20 02:33N 53°27' E 006°50'0 0.0
2014-Nov-20 01:33N 53°27' E 006°50'0 0.0
2014-Nov-20 00:33N 53°27' E 006°50'0 0.0
2014-Nov-19 23:33N 53°27' E 006°50'0 0.0
2014-Nov-19 22:27N 53°27' E 006°50'0 0.0
2014-Nov-19 21:30N 53°27' E 006°50'0 0.0
2014-Nov-19 20:33N 53°27' E 006°50'0 0.0
2014-Nov-19 19:33N 53°27' E 006°50'0 0.0
2014-Nov-19 18:33N 53°27' E 006°50'0 0.0
2014-Nov-19 17:33N 53°27' E 006°50'0 0.0
2014-Nov-19 16:33N 53°27' E 006°50'0 0.0
2014-Nov-19 15:30N 53°27' E 006°50'0 0.0
2014-Nov-19 14:33N 53°27' E 006°50'0 0.0
2014-Nov-19 13:33N 53°27' E 006°50'0 0.0
2014-Nov-19 12:33N 53°27' E 006°50'0 0.0
2014-Nov-19 11:33N 53°27' E 006°50'0 0.0
2014-Nov-19 10:30N 53°27' E 006°50'0 0.0
2014-Nov-19 09:30N 53°27' E 006°50'0 0.0
2014-Nov-19 08:33N 53°27' E 006°50'0 0.0
2014-Nov-19 07:33N 53°27' E 006°50'0 0.0
2014-Nov-19 06:33N 53°27' E 006°50'0 0.0
2014-Nov-19 05:30N 53°27' E 006°50'0 0.0
2014-Nov-19 04:33N 53°27' E 006°50'0 0.0
2014-Nov-19 03:33N 53°27' E 006°50'0 0.0
2014-Nov-19 02:30N 53°27' E 006°50'0 0.0
2014-Nov-19 01:33N 53°27' E 006°50'0 0.0
2014-Nov-19 00:33N 53°27' E 006°50'0 0.0
2014-Nov-18 23:33N 53°27' E 006°50'0 0.0
2014-Nov-18 22:33N 53°27' E 006°50'0 0.0
2014-Nov-18 21:33N 53°27' E 006°50'0 0.0
2014-Nov-18 20:33N 53°27' E 006°50'0 0.0
2014-Nov-18 19:33N 53°27' E 006°50'0 0.0
2014-Nov-18 18:27N 53°27' E 006°50'0 0.0
2014-Nov-18 17:33N 53°27' E 006°50'0 0.0
2014-Nov-18 16:33N 53°27' E 006°50'0 0.0
2014-Nov-18 15:33N 53°27' E 006°50'0 0.0
2014-Nov-18 14:33N 53°27' E 006°50'0 0.0
2014-Nov-18 13:27N 53°27' E 006°50'0 0.0
2014-Nov-18 12:33N 53°27' E 006°50'0 0.0
2014-Nov-18 11:30N 53°27' E 006°50'1 0.6
2014-Nov-18 09:33N 53°28' E 006°50'1 1.0
2014-Nov-18 08:30N 53°27' E 006°50'0 0.0
2014-Nov-18 07:30N 53°27' E 006°50'0 0.0
2014-Nov-18 06:33N 53°27' E 006°50'0 0.0
2014-Nov-18 05:30N 53°27' E 006°50'0 0.0
2014-Nov-18 04:33N 53°27' E 006°50'0 0.0
2014-Nov-18 03:33N 53°27' E 006°50'0 0.0
2014-Nov-18 02:33N 53°27' E 006°50'0 0.0
2014-Nov-18 01:33N 53°27' E 006°50'0 0.0
2014-Nov-18 00:33N 53°27' E 006°50'0 0.0
2014-Nov-17 23:33N 53°27' E 006°50'0 0.0
2014-Nov-17 22:30N 53°27' E 006°50'0 0.0
2014-Nov-17 21:33N 53°27' E 006°50'0 0.0
2014-Nov-17 20:33N 53°27' E 006°50'0 0.0
2014-Nov-17 19:27N 53°27' E 006°50'  

Dump ship's entire track history